sensor_id;sensor_type;location;lat;lon;timestamp;pressure;altitude;pressure_sealevel;temperature;humidity
29815;BME280;16708;50.426;7.664;2022-07-10T00:00:51;996.43;;;14.29;100.00
29815;BME280;16708;50.426;7.664;2022-07-10T00:05:46;996.30;;;14.13;100.00
29815;BME280;16708;50.426;7.664;2022-07-10T00:10:40;996.28;;;14.22;99.98
29815;BME280;16708;50.426;7.664;2022-07-10T00:15:35;996.32;;;14.23;98.92
29815;BME280;16708;50.426;7.664;2022-07-10T00:20:29;996.30;;;14.26;97.94
29815;BME280;16708;50.426;7.664;2022-07-10T00:25:24;996.25;;;14.32;96.81
29815;BME280;16708;50.426;7.664;2022-07-10T00:30:18;996.31;;;14.24;97.39
29815;BME280;16708;50.426;7.664;2022-07-10T00:35:13;996.29;;;14.20;98.75
29815;BME280;16708;50.426;7.664;2022-07-10T00:40:07;996.30;;;14.17;98.90
29815;BME280;16708;50.426;7.664;2022-07-10T00:45:02;996.33;;;14.11;99.76
29815;BME280;16708;50.426;7.664;2022-07-10T00:49:57;996.38;;;14.00;100.00
29815;BME280;16708;50.426;7.664;2022-07-10T00:54:50;996.40;;;13.90;100.00
29815;BME280;16708;50.426;7.664;2022-07-10T00:59:44;996.38;;;13.67;100.00
29815;BME280;16708;50.426;7.664;2022-07-10T01:04:39;996.35;;;13.62;100.00
29815;BME280;16708;50.426;7.664;2022-07-10T01:09:33;996.37;;;13.59;100.00
29815;BME280;16708;50.426;7.664;2022-07-10T01:14:27;996.31;;;13.51;100.00
29815;BME280;16708;50.426;7.664;2022-07-10T01:19:21;996.20;;;13.45;100.00
29815;BME280;16708;50.426;7.664;2022-07-10T01:24:16;996.32;;;13.38;100.00
29815;BME280;16708;50.426;7.664;2022-07-10T01:29:11;996.26;;;13.24;100.00
29815;BME280;16708;50.426;7.664;2022-07-10T01:34:05;996.22;;;13.11;100.00
29815;BME280;16708;50.426;7.664;2022-07-10T01:39:00;996.21;;;12.97;100.00
29815;BME280;16708;50.426;7.664;2022-07-10T01:43:54;996.28;;;12.88;100.00
29815;BME280;16708;50.426;7.664;2022-07-10T01:48:49;996.29;;;12.78;100.00
29815;BME280;16708;50.426;7.664;2022-07-10T01:53:44;996.27;;;12.58;100.00
29815;BME280;16708;50.426;7.664;2022-07-10T01:58:38;996.25;;;12.45;100.00
29815;BME280;16708;50.426;7.664;2022-07-10T02:03:35;996.18;;;12.33;100.00
29815;BME280;16708;50.426;7.664;2022-07-10T02:08:28;996.23;;;12.30;100.00
29815;BME280;16708;50.426;7.664;2022-07-10T02:13:23;996.21;;;12.33;100.00
29815;BME280;16708;50.426;7.664;2022-07-10T02:18:18;996.23;;;12.29;100.00
29815;BME280;16708;50.426;7.664;2022-07-10T02:23:12;996.32;;;12.15;100.00
29815;BME280;16708;50.426;7.664;2022-07-10T02:28:07;996.31;;;11.97;100.00
29815;BME280;16708;50.426;7.664;2022-07-10T02:33:01;996.34;;;11.90;100.00
29815;BME280;16708;50.426;7.664;2022-07-10T02:37:55;996.23;;;11.70;100.00
29815;BME280;16708;50.426;7.664;2022-07-10T02:42:50;996.24;;;11.54;100.00
29815;BME280;16708;50.426;7.664;2022-07-10T02:47:45;996.34;;;11.48;100.00
29815;BME280;16708;50.426;7.664;2022-07-10T02:52:39;996.25;;;11.35;100.00
29815;BME280;16708;50.426;7.664;2022-07-10T02:57:34;996.18;;;11.47;100.00
29815;BME280;16708;50.426;7.664;2022-07-10T03:02:29;996.08;;;11.39;100.00
29815;BME280;16708;50.426;7.664;2022-07-10T03:07:24;996.18;;;11.39;100.00
29815;BME280;16708;50.426;7.664;2022-07-10T03:12:18;996.15;;;11.26;100.00
29815;BME280;16708;50.426;7.664;2022-07-10T03:17:12;996.24;;;11.18;100.00
29815;BME280;16708;50.426;7.664;2022-07-10T03:22:07;996.18;;;11.11;100.00
29815;BME280;16708;50.426;7.664;2022-07-10T03:27:02;996.13;;;11.09;100.00
29815;BME280;16708;50.426;7.664;2022-07-10T03:31:57;996.23;;;11.19;100.00
29815;BME280;16708;50.426;7.664;2022-07-10T03:36:51;996.26;;;11.31;100.00
29815;BME280;16708;50.426;7.664;2022-07-10T03:41:46;996.29;;;11.36;100.00
29815;BME280;16708;50.426;7.664;2022-07-10T03:46:40;996.29;;;11.46;100.00
29815;BME280;16708;50.426;7.664;2022-07-10T03:51:35;996.33;;;11.56;100.00
29815;BME280;16708;50.426;7.664;2022-07-10T03:56:30;996.32;;;11.55;100.00
29815;BME280;16708;50.426;7.664;2022-07-10T04:01:24;996.33;;;11.49;100.00
29815;BME280;16708;50.426;7.664;2022-07-10T04:06:18;996.37;;;11.67;100.00
29815;BME280;16708;50.426;7.664;2022-07-10T04:11:12;996.37;;;11.80;100.00
29815;BME280;16708;50.426;7.664;2022-07-10T04:16:07;996.31;;;11.84;100.00
29815;BME280;16708;50.426;7.664;2022-07-10T04:21:05;996.43;;;12.06;100.00
29815;BME280;16708;50.426;7.664;2022-07-10T04:25:56;996.39;;;12.21;100.00
29815;BME280;16708;50.426;7.664;2022-07-10T04:30:51;996.44;;;12.33;100.00
29815;BME280;16708;50.426;7.664;2022-07-10T04:35:45;996.41;;;12.31;100.00
29815;BME280;16708;50.426;7.664;2022-07-10T04:40:42;996.54;;;12.44;100.00
29815;BME280;16708;50.426;7.664;2022-07-10T04:45:35;996.31;;;12.56;100.00
29815;BME280;16708;50.426;7.664;2022-07-10T04:50:30;996.42;;;12.65;100.00
29815;BME280;16708;50.426;7.664;2022-07-10T04:55:25;996.41;;;12.76;100.00
29815;BME280;16708;50.426;7.664;2022-07-10T05:00:20;996.50;;;12.87;100.00
29815;BME280;16708;50.426;7.664;2022-07-10T05:05:14;996.53;;;13.20;100.00
29815;BME280;16708;50.426;7.664;2022-07-10T05:10:09;996.41;;;13.38;100.00
29815;BME280;16708;50.426;7.664;2022-07-10T05:15:04;996.54;;;13.37;100.00
29815;BME280;16708;50.426;7.664;2022-07-10T05:19:59;996.53;;;13.25;100.00
29815;BME280;16708;50.426;7.664;2022-07-10T05:24:53;996.60;;;13.61;100.00
29815;BME280;16708;50.426;7.664;2022-07-10T05:29:48;996.63;;;13.55;100.00
29815;BME280;16708;50.426;7.664;2022-07-10T05:34:43;996.56;;;13.78;100.00
29815;BME280;16708;50.426;7.664;2022-07-10T05:39:38;996.62;;;13.81;100.00
29815;BME280;16708;50.426;7.664;2022-07-10T05:44:33;996.65;;;13.86;100.00
29815;BME280;16708;50.426;7.664;2022-07-10T05:49:27;996.70;;;13.94;100.00
29815;BME280;16708;50.426;7.664;2022-07-10T05:54:22;996.61;;;14.07;100.00
29815;BME280;16708;50.426;7.664;2022-07-10T05:59:17;996.64;;;14.46;100.00
29815;BME280;16708;50.426;7.664;2022-07-10T06:04:11;996.58;;;14.69;98.92
29815;BME280;16708;50.426;7.664;2022-07-10T06:09:06;996.60;;;14.45;97.99
29815;BME280;16708;50.426;7.664;2022-07-10T06:14:01;996.54;;;14.45;97.41
29815;BME280;16708;50.426;7.664;2022-07-10T06:18:56;996.51;;;14.57;96.52
29815;BME280;16708;50.426;7.664;2022-07-10T06:23:47;996.49;;;14.92;96.94
29815;BME280;16708;50.426;7.664;2022-07-10T06:28:42;996.52;;;14.88;92.74
29815;BME280;16708;50.426;7.664;2022-07-10T06:33:37;996.56;;;15.22;91.42
29815;BME280;16708;50.426;7.664;2022-07-10T06:38:32;996.65;;;15.67;91.00
29815;BME280;16708;50.426;7.664;2022-07-10T06:43:26;996.58;;;15.23;86.75
29815;BME280;16708;50.426;7.664;2022-07-10T06:48:21;996.58;;;15.08;87.19
29815;BME280;16708;50.426;7.664;2022-07-10T06:53:16;996.65;;;15.49;86.84
29815;BME280;16708;50.426;7.664;2022-07-10T06:58:12;996.60;;;15.94;82.77
29815;BME280;16708;50.426;7.664;2022-07-10T07:03:07;996.56;;;15.54;83.72
29815;BME280;16708;50.426;7.664;2022-07-10T07:08:01;996.61;;;15.69;82.47
29815;BME280;16708;50.426;7.664;2022-07-10T07:12:56;996.64;;;16.32;80.85
29815;BME280;16708;50.426;7.664;2022-07-10T07:17:50;996.54;;;16.35;78.70
29815;BME280;16708;50.426;7.664;2022-07-10T07:22:45;996.60;;;15.54;79.76
29815;BME280;16708;50.426;7.664;2022-07-10T07:27:39;996.63;;;15.96;80.96
29815;BME280;16708;50.426;7.664;2022-07-10T07:32:34;996.68;;;16.39;77.70
29815;BME280;16708;50.426;7.664;2022-07-10T07:37:29;996.61;;;16.52;75.94
29815;BME280;16708;50.426;7.664;2022-07-10T07:42:24;996.67;;;15.73;76.16
29815;BME280;16708;50.426;7.664;2022-07-10T07:47:19;996.63;;;15.16;78.38
29815;BME280;16708;50.426;7.664;2022-07-10T07:52:13;996.76;;;15.56;77.12
29815;BME280;16708;50.426;7.664;2022-07-10T07:57:07;996.70;;;16.59;73.43
29815;BME280;16708;50.426;7.664;2022-07-10T08:02:02;996.79;;;16.43;71.73
29815;BME280;16708;50.426;7.664;2022-07-10T08:06:56;996.73;;;15.85;75.12
29815;BME280;16708;50.426;7.664;2022-07-10T08:11:50;996.70;;;15.92;76.22
29815;BME280;16708;50.426;7.664;2022-07-10T08:16:45;996.66;;;16.49;73.82
29815;BME280;16708;50.426;7.664;2022-07-10T08:21:40;996.67;;;17.09;68.76
29815;BME280;16708;50.426;7.664;2022-07-10T08:26:35;996.62;;;16.78;69.05
29815;BME280;16708;50.426;7.664;2022-07-10T08:31:30;996.67;;;16.98;68.65
29815;BME280;16708;50.426;7.664;2022-07-10T08:36:25;996.62;;;17.11;64.03
29815;BME280;16708;50.426;7.664;2022-07-10T08:41:20;996.70;;;17.03;65.04
29815;BME280;16708;50.426;7.664;2022-07-10T08:46:14;996.74;;;16.88;69.03
29815;BME280;16708;50.426;7.664;2022-07-10T08:51:09;996.71;;;17.47;65.12
29815;BME280;16708;50.426;7.664;2022-07-10T08:56:04;996.46;;;17.86;60.53
29815;BME280;16708;50.426;7.664;2022-07-10T09:00:59;996.38;;;17.56;61.80
29815;BME280;16708;50.426;7.664;2022-07-10T09:05:53;996.57;;;17.18;63.27
29815;BME280;16708;50.426;7.664;2022-07-10T09:15:43;996.56;;;17.79;61.05
29815;BME280;16708;50.426;7.664;2022-07-10T09:25:32;996.42;;;19.18;54.33
29815;BME280;16708;50.426;7.664;2022-07-10T09:30:27;996.40;;;19.09;51.29
29815;BME280;16708;50.426;7.664;2022-07-10T09:35:22;996.41;;;18.39;57.20
29815;BME280;16708;50.426;7.664;2022-07-10T09:45:10;996.31;;;17.29;62.59
29815;BME280;16708;50.426;7.664;2022-07-10T09:50:05;996.37;;;17.46;62.07
29815;BME280;16708;50.426;7.664;2022-07-10T09:54:58;996.31;;;17.71;59.83
29815;BME280;16708;50.426;7.664;2022-07-10T09:59:53;996.42;;;18.14;60.50
29815;BME280;16708;50.426;7.664;2022-07-10T10:04:48;996.40;;;18.36;57.24
29815;BME280;16708;50.426;7.664;2022-07-10T10:09:43;996.38;;;18.05;60.39
29815;BME280;16708;50.426;7.664;2022-07-10T10:14:37;996.39;;;17.87;59.21
29815;BME280;16708;50.426;7.664;2022-07-10T10:19:32;996.44;;;18.14;59.85
29815;BME280;16708;50.426;7.664;2022-07-10T10:24:26;996.36;;;18.19;60.19
29815;BME280;16708;50.426;7.664;2022-07-10T10:29:21;996.43;;;18.36;59.01
29815;BME280;16708;50.426;7.664;2022-07-10T10:34:16;996.50;;;18.49;59.71
29815;BME280;16708;50.426;7.664;2022-07-10T10:39:11;996.43;;;18.58;60.73
29815;BME280;16708;50.426;7.664;2022-07-10T10:49:01;996.41;;;20.18;53.53
29815;BME280;16708;50.426;7.664;2022-07-10T10:53:57;996.34;;;22.72;47.49
29815;BME280;16708;50.426;7.664;2022-07-10T10:58:52;996.29;;;20.51;50.61
29815;BME280;16708;50.426;7.664;2022-07-10T11:13:35;996.31;;;18.41;61.60
29815;BME280;16708;50.426;7.664;2022-07-10T11:18:29;996.28;;;18.14;63.32
29815;BME280;16708;50.426;7.664;2022-07-10T11:28:17;996.29;;;17.92;67.72
29815;BME280;16708;50.426;7.664;2022-07-10T11:33:12;996.36;;;18.72;66.87
29815;BME280;16708;50.426;7.664;2022-07-10T11:47:56;996.38;;;19.27;63.33
29815;BME280;16708;50.426;7.664;2022-07-10T11:57:46;996.35;;;19.91;60.52
29815;BME280;16708;50.426;7.664;2022-07-10T12:02:40;996.33;;;19.35;62.21
29815;BME280;16708;50.426;7.664;2022-07-10T12:07:35;996.26;;;18.51;64.25
29815;BME280;16708;50.426;7.664;2022-07-10T12:12:30;996.26;;;18.28;65.48
29815;BME280;16708;50.426;7.664;2022-07-10T12:17:24;996.34;;;18.33;66.69
29815;BME280;16708;50.426;7.664;2022-07-10T12:22:19;996.31;;;18.51;66.27
29815;BME280;16708;50.426;7.664;2022-07-10T12:27:13;996.31;;;18.82;65.28
29815;BME280;16708;50.426;7.664;2022-07-10T12:32:08;996.29;;;18.65;66.30
29815;BME280;16708;50.426;7.664;2022-07-10T12:37:03;996.30;;;18.57;68.33
29815;BME280;16708;50.426;7.664;2022-07-10T12:46:52;996.40;;;17.72;73.53
29815;BME280;16708;50.426;7.664;2022-07-10T12:56:41;996.49;;;17.75;77.22
29815;BME280;16708;50.426;7.664;2022-07-10T13:01:35;996.46;;;17.64;75.14
29815;BME280;16708;50.426;7.664;2022-07-10T13:06:30;996.43;;;18.21;73.19
29815;BME280;16708;50.426;7.664;2022-07-10T13:11:24;996.47;;;18.34;72.01
29815;BME280;16708;50.426;7.664;2022-07-10T13:16:19;996.32;;;19.22;70.22
29815;BME280;16708;50.426;7.664;2022-07-10T13:21:13;996.43;;;19.97;66.93
29815;BME280;16708;50.426;7.664;2022-07-10T13:26:09;996.43;;;20.49;63.07
29815;BME280;16708;50.426;7.664;2022-07-10T13:31:04;996.38;;;19.70;67.52
29815;BME280;16708;50.426;7.664;2022-07-10T13:35:58;996.36;;;18.66;72.79
29815;BME280;16708;50.426;7.664;2022-07-10T13:40:52;996.42;;;18.43;74.89
29815;BME280;16708;50.426;7.664;2022-07-10T13:45:46;996.47;;;18.03;76.59
29815;BME280;16708;50.426;7.664;2022-07-10T13:50:40;996.44;;;18.03;77.69
29815;BME280;16708;50.426;7.664;2022-07-10T13:55:35;996.45;;;18.03;78.88
29815;BME280;16708;50.426;7.664;2022-07-10T14:00:30;996.38;;;18.13;80.56
29815;BME280;16708;50.426;7.664;2022-07-10T14:05:25;996.42;;;18.44;77.15
29815;BME280;16708;50.426;7.664;2022-07-10T14:10:20;996.41;;;18.92;77.84
29815;BME280;16708;50.426;7.664;2022-07-10T14:15:16;996.37;;;18.91;76.78
29815;BME280;16708;50.426;7.664;2022-07-10T14:20:10;996.37;;;18.64;77.06
29815;BME280;16708;50.426;7.664;2022-07-10T14:25:05;996.42;;;18.72;75.39
29815;BME280;16708;50.426;7.664;2022-07-10T14:29:59;996.38;;;18.69;76.10
29815;BME280;16708;50.426;7.664;2022-07-10T14:34:54;996.42;;;18.11;79.33
29815;BME280;16708;50.426;7.664;2022-07-10T14:39:49;996.32;;;18.36;79.15
29815;BME280;16708;50.426;7.664;2022-07-10T14:44:43;996.44;;;18.06;81.38
29815;BME280;16708;50.426;7.664;2022-07-10T14:49:37;996.39;;;17.50;86.00
29815;BME280;16708;50.426;7.664;2022-07-10T14:54:31;996.35;;;17.92;84.61
29815;BME280;16708;50.426;7.664;2022-07-10T14:59:25;996.34;;;18.35;83.55
29815;BME280;16708;50.426;7.664;2022-07-10T15:04:21;996.29;;;18.40;84.02
29815;BME280;16708;50.426;7.664;2022-07-10T15:09:15;996.34;;;18.75;81.15
29815;BME280;16708;50.426;7.664;2022-07-10T15:14:10;996.24;;;18.53;81.38
29815;BME280;16708;50.426;7.664;2022-07-10T15:19:06;996.17;;;18.69;82.23
29815;BME280;16708;50.426;7.664;2022-07-10T15:24:01;996.07;;;18.17;84.39
29815;BME280;16708;50.426;7.664;2022-07-10T15:28:55;996.10;;;17.79;88.18
29815;BME280;16708;50.426;7.664;2022-07-10T15:33:50;995.98;;;17.67;87.39
29815;BME280;16708;50.426;7.664;2022-07-10T15:38:44;995.97;;;17.45;91.34
29815;BME280;16708;50.426;7.664;2022-07-10T15:43:38;995.97;;;17.22;92.50
29815;BME280;16708;50.426;7.664;2022-07-10T15:48:33;996.01;;;17.24;93.62
29815;BME280;16708;50.426;7.664;2022-07-10T15:53:27;995.93;;;17.62;91.14
29815;BME280;16708;50.426;7.664;2022-07-10T15:58:22;995.87;;;18.55;87.78
29815;BME280;16708;50.426;7.664;2022-07-10T16:03:17;995.90;;;19.70;78.65
29815;BME280;16708;50.426;7.664;2022-07-10T16:08:12;995.82;;;19.41;76.56
29815;BME280;16708;50.426;7.664;2022-07-10T16:13:08;995.82;;;17.84;88.29
29815;BME280;16708;50.426;7.664;2022-07-10T16:18:02;995.76;;;18.17;86.00
29815;BME280;16708;50.426;7.664;2022-07-10T16:22:56;995.71;;;17.74;90.64
29815;BME280;16708;50.426;7.664;2022-07-10T16:27:50;995.65;;;17.69;93.40
29815;BME280;16708;50.426;7.664;2022-07-10T16:32:45;995.62;;;17.93;88.84
29815;BME280;16708;50.426;7.664;2022-07-10T16:37:39;995.65;;;17.68;90.60
29815;BME280;16708;50.426;7.664;2022-07-10T16:42:34;995.63;;;17.86;93.58
29815;BME280;16708;50.426;7.664;2022-07-10T16:47:29;995.53;;;17.59;93.04
29815;BME280;16708;50.426;7.664;2022-07-10T16:52:23;995.47;;;17.63;92.85
29815;BME280;16708;50.426;7.664;2022-07-10T16:57:18;995.52;;;17.36;94.21
29815;BME280;16708;50.426;7.664;2022-07-10T17:02:12;995.44;;;17.39;94.05
29815;BME280;16708;50.426;7.664;2022-07-10T17:07:07;995.53;;;17.53;93.79
29815;BME280;16708;50.426;7.664;2022-07-10T17:12:03;995.43;;;18.13;89.40
29815;BME280;16708;50.426;7.664;2022-07-10T17:16:56;995.44;;;18.01;87.63
29815;BME280;16708;50.426;7.664;2022-07-10T17:21:51;995.37;;;17.86;89.53
29815;BME280;16708;50.426;7.664;2022-07-10T17:26:45;995.40;;;17.60;92.44
29815;BME280;16708;50.426;7.664;2022-07-10T17:31:40;995.39;;;17.26;95.25
29815;BME280;16708;50.426;7.664;2022-07-10T17:36:35;995.32;;;17.48;94.54
29815;BME280;16708;50.426;7.664;2022-07-10T17:41:31;995.42;;;17.35;96.79
29815;BME280;16708;50.426;7.664;2022-07-10T17:46:24;995.41;;;17.18;98.82
29815;BME280;16708;50.426;7.664;2022-07-10T17:51:18;995.32;;;17.16;99.90
29815;BME280;16708;50.426;7.664;2022-07-10T17:56:11;995.31;;;17.13;99.19
29815;BME280;16708;50.426;7.664;2022-07-10T18:01:05;995.29;;;17.04;99.69
29815;BME280;16708;50.426;7.664;2022-07-10T18:05:59;995.30;;;17.16;99.51
29815;BME280;16708;50.426;7.664;2022-07-10T18:10:54;995.32;;;17.11;99.81
29815;BME280;16708;50.426;7.664;2022-07-10T18:15:48;995.35;;;17.06;100.00
29815;BME280;16708;50.426;7.664;2022-07-10T18:20:43;995.30;;;17.10;100.00
29815;BME280;16708;50.426;7.664;2022-07-10T18:25:39;995.26;;;17.13;100.00
29815;BME280;16708;50.426;7.664;2022-07-10T18:30:33;995.31;;;17.06;100.00
29815;BME280;16708;50.426;7.664;2022-07-10T18:35:27;995.29;;;17.04;100.00
29815;BME280;16708;50.426;7.664;2022-07-10T18:40:22;995.29;;;17.06;100.00
29815;BME280;16708;50.426;7.664;2022-07-10T18:45:17;995.33;;;16.92;100.00
29815;BME280;16708;50.426;7.664;2022-07-10T18:50:12;995.36;;;16.97;100.00
29815;BME280;16708;50.426;7.664;2022-07-10T18:55:07;995.37;;;17.06;100.00
29815;BME280;16708;50.426;7.664;2022-07-10T19:00:01;995.36;;;16.94;100.00
29815;BME280;16708;50.426;7.664;2022-07-10T19:04:56;995.33;;;16.92;100.00
29815;BME280;16708;50.426;7.664;2022-07-10T19:09:50;995.29;;;16.79;100.00
29815;BME280;16708;50.426;7.664;2022-07-10T19:14:45;995.30;;;16.78;100.00
29815;BME280;16708;50.426;7.664;2022-07-10T19:19:40;995.32;;;16.76;100.00
29815;BME280;16708;50.426;7.664;2022-07-10T19:24:34;995.26;;;16.61;100.00
29815;BME280;16708;50.426;7.664;2022-07-10T19:29:29;995.31;;;16.59;100.00
29815;BME280;16708;50.426;7.664;2022-07-10T19:34:24;995.29;;;16.56;100.00
29815;BME280;16708;50.426;7.664;2022-07-10T19:39:19;995.28;;;16.40;100.00
29815;BME280;16708;50.426;7.664;2022-07-10T19:44:13;995.24;;;16.17;100.00
29815;BME280;16708;50.426;7.664;2022-07-10T19:49:08;995.26;;;16.15;100.00
29815;BME280;16708;50.426;7.664;2022-07-10T19:54:03;995.37;;;16.12;100.00
29815;BME280;16708;50.426;7.664;2022-07-10T19:58:57;995.35;;;16.28;100.00
29815;BME280;16708;50.426;7.664;2022-07-10T20:03:52;995.34;;;16.29;100.00
29815;BME280;16708;50.426;7.664;2022-07-10T20:08:47;995.36;;;16.23;100.00
29815;BME280;16708;50.426;7.664;2022-07-10T20:13:41;995.34;;;16.05;100.00
29815;BME280;16708;50.426;7.664;2022-07-10T20:18:36;995.36;;;16.03;100.00
29815;BME280;16708;50.426;7.664;2022-07-10T20:23:31;995.30;;;16.19;100.00
29815;BME280;16708;50.426;7.664;2022-07-10T20:28:26;995.39;;;16.23;100.00
29815;BME280;16708;50.426;7.664;2022-07-10T20:33:21;995.43;;;16.19;100.00
29815;BME280;16708;50.426;7.664;2022-07-10T20:38:15;995.32;;;16.16;100.00
29815;BME280;16708;50.426;7.664;2022-07-10T20:43:10;995.39;;;16.05;100.00
29815;BME280;16708;50.426;7.664;2022-07-10T20:48:05;995.29;;;16.06;100.00
29815;BME280;16708;50.426;7.664;2022-07-10T20:52:59;995.27;;;16.06;100.00
29815;BME280;16708;50.426;7.664;2022-07-10T20:57:54;995.29;;;16.03;100.00
29815;BME280;16708;50.426;7.664;2022-07-10T21:02:49;995.31;;;16.05;100.00
29815;BME280;16708;50.426;7.664;2022-07-10T21:07:44;995.29;;;16.01;100.00
29815;BME280;16708;50.426;7.664;2022-07-10T21:12:38;995.30;;;16.05;100.00
29815;BME280;16708;50.426;7.664;2022-07-10T21:17:33;995.28;;;16.00;100.00
29815;BME280;16708;50.426;7.664;2022-07-10T21:22:27;995.28;;;16.02;100.00
29815;BME280;16708;50.426;7.664;2022-07-10T21:27:24;995.28;;;16.00;100.00
29815;BME280;16708;50.426;7.664;2022-07-10T21:32:18;995.29;;;16.04;100.00
29815;BME280;16708;50.426;7.664;2022-07-10T21:37:12;995.19;;;16.01;100.00
29815;BME280;16708;50.426;7.664;2022-07-10T21:42:06;995.25;;;15.99;100.00
29815;BME280;16708;50.426;7.664;2022-07-10T21:47:00;995.31;;;15.99;100.00
29815;BME280;16708;50.426;7.664;2022-07-10T21:51:55;995.26;;;15.94;100.00
29815;BME280;16708;50.426;7.664;2022-07-10T21:56:50;995.26;;;15.96;100.00
29815;BME280;16708;50.426;7.664;2022-07-10T22:01:43;995.22;;;16.03;100.00
29815;BME280;16708;50.426;7.664;2022-07-10T22:06:38;995.27;;;15.87;100.00
29815;BME280;16708;50.426;7.664;2022-07-10T22:11:32;995.21;;;15.90;100.00
29815;BME280;16708;50.426;7.664;2022-07-10T22:16:26;995.20;;;15.87;100.00
29815;BME280;16708;50.426;7.664;2022-07-10T22:21:21;995.10;;;15.92;100.00
29815;BME280;16708;50.426;7.664;2022-07-10T22:26:15;995.12;;;15.92;100.00
29815;BME280;16708;50.426;7.664;2022-07-10T22:31:10;995.12;;;15.93;100.00
29815;BME280;16708;50.426;7.664;2022-07-10T22:36:04;995.08;;;15.90;100.00
29815;BME280;16708;50.426;7.664;2022-07-10T22:40:58;995.04;;;15.89;100.00
29815;BME280;16708;50.426;7.664;2022-07-10T22:45:53;995.01;;;15.83;100.00
29815;BME280;16708;50.426;7.664;2022-07-10T22:50:48;994.99;;;15.81;100.00
29815;BME280;16708;50.426;7.664;2022-07-10T22:55:42;994.98;;;15.92;100.00
29815;BME280;16708;50.426;7.664;2022-07-10T23:00:35;994.94;;;15.86;100.00
29815;BME280;16708;50.426;7.664;2022-07-10T23:05:30;994.91;;;15.86;100.00
29815;BME280;16708;50.426;7.664;2022-07-10T23:10:25;994.89;;;15.80;100.00
29815;BME280;16708;50.426;7.664;2022-07-10T23:15:20;994.92;;;15.82;100.00
29815;BME280;16708;50.426;7.664;2022-07-10T23:20:13;994.82;;;15.71;100.00
29815;BME280;16708;50.426;7.664;2022-07-10T23:25:08;994.83;;;15.75;100.00
29815;BME280;16708;50.426;7.664;2022-07-10T23:30:02;994.81;;;15.70;100.00
29815;BME280;16708;50.426;7.664;2022-07-10T23:34:58;994.74;;;15.68;100.00
29815;BME280;16708;50.426;7.664;2022-07-10T23:39:51;994.71;;;15.67;100.00
29815;BME280;16708;50.426;7.664;2022-07-10T23:44:46;994.71;;;15.66;100.00
29815;BME280;16708;50.426;7.664;2022-07-10T23:49:42;994.62;;;15.64;100.00
29815;BME280;16708;50.426;7.664;2022-07-10T23:54:36;994.57;;;15.70;100.00
29815;BME280;16708;50.426;7.664;2022-07-10T23:59:31;994.49;;;15.62;100.00
